Time;durP1;ratioP1;P1;durP2;ratioP2;P2;SDS_P1;SDS_P2;PMS_P1;PMS_P2;Temp;Humidity;BMP_temperature;BMP_pressure;BME280_temperature;BME280_humidity;BME280_pressure;Samples;Min_cycle;Max_cycle;Signal;HPM_P1;HPM_P2
2023/09/11 00:00:22;;;;;;;;;;;16.20;99.90;;;;;;4971327;28;20007;-78
2023/09/11 00:02:48;;;;;;;;;;;16.10;99.90;;;;;;4971575;28;19913;-78
2023/09/11 00:05:13;;;;;;;;;;;16.20;99.90;;;;;;4971301;28;19906;-78
2023/09/11 00:07:39;;;;;;;;;;;16.20;99.90;;;;;;4971422;28;20382;-78
2023/09/11 00:10:04;;;;;;;;;;;16.10;99.90;;;;;;4971363;28;20263;-78
2023/09/11 00:12:30;;;;;;;;;;;16.10;99.90;;;;;;4971515;28;19921;-78
2023/09/11 00:14:56;;;;;;;;;;;16.10;99.90;;;;;;4970572;28;19913;-78
2023/09/11 00:17:21;;;;;;;;;;;16.00;99.90;;;;;;4970980;28;20288;-78
2023/09/11 00:19:47;;;;;;;;;;;16.10;99.90;;;;;;4970815;28;20039;-79
2023/09/11 00:22:12;;;;;;;;;;;16.00;99.90;;;;;;4971222;28;19972;-77
2023/09/11 00:24:38;;;;;;;;;;;16.00;99.90;;;;;;4971317;28;20363;-78
2023/09/11 00:27:04;;;;;;;;;;;16.00;99.90;;;;;;4970984;28;20366;-78
2023/09/11 00:29:29;;;;;;;;;;;16.00;99.90;;;;;;4970943;28;19953;-78
2023/09/11 00:31:55;;;;;;;;;;;16.00;99.90;;;;;;4970753;28;19921;-77
2023/09/11 00:34:20;;;;;;;;;;;16.00;99.90;;;;;;4970428;28;20327;-78
2023/09/11 00:36:46;;;;;;;;;;;15.90;99.90;;;;;;4970958;28;20279;-78
2023/09/11 00:39:12;;;;;;;;;;;15.90;99.90;;;;;;4970927;28;19910;-78
2023/09/11 00:41:37;;;;;;;;;;;15.90;99.90;;;;;;4970806;28;19910;-78
2023/09/11 00:44:03;;;;;;;;;;;15.80;99.90;;;;;;4971877;28;19906;-78
2023/09/11 00:46:30;;;;;;;;;;;15.80;99.90;;;;;;4971402;28;20413;-77
2023/09/11 00:48:56;;;;;;;;;;;15.80;99.90;;;;;;4970634;28;20430;-77
2023/09/11 00:51:21;;;;;;;;;;;15.80;99.90;;;;;;4970172;28;19949;-77
2023/09/11 00:53:47;;;;;;;;;;;15.70;99.90;;;;;;4953234;28;19921;-78
2023/09/11 00:56:13;;;;;;;;;;;15.60;99.90;;;;;;4970670;28;19906;-78
2023/09/11 00:58:39;;;;;;;;;;;15.60;99.90;;;;;;4953283;28;19917;-78
2023/09/11 01:01:05;;;;;;;;;;;15.60;99.90;;;;;;4970580;28;19910;-77
2023/09/11 01:03:30;;;;;;;;;;;15.50;99.90;;;;;;4970721;28;20036;-77
2023/09/11 01:05:56;;;;;;;;;;;15.50;99.90;;;;;;4970295;28;19906;-78
2023/09/11 01:08:22;;;;;;;;;;;15.40;99.90;;;;;;4970402;28;19945;-78
2023/09/11 01:10:48;;;;;;;;;;;15.40;99.90;;;;;;4970428;28;20012;-76
2023/09/11 01:13:13;;;;;;;;;;;15.40;99.90;;;;;;4952923;28;19929;-77
2023/09/11 01:15:42;;;;;;;;;;;15.50;99.90;;;;;;4970437;28;20627;-77
2023/09/11 01:18:17;;;;;;;;;;;15.50;99.90;;;;;;4970446;28;19913;-77
2023/09/11 01:20:43;;;;;;;;;;;15.50;99.90;;;;;;4970151;28;19921;-77
2023/09/11 01:23:27;;;;;;;;;;;15.40;99.90;;;;;;4952954;28;19945;-77
2023/09/11 01:26:02;;;;;;;;;;;15.50;99.90;;;;;;4970685;28;19906;-77
2023/09/11 01:28:39;;;;;;;;;;;15.50;99.90;;;;;;4973267;28;19906;-77
2023/09/11 01:31:05;;;;;;;;;;;15.60;99.90;;;;;;4956459;28;19906;-78
2023/09/11 01:33:30;;;;;;;;;;;15.60;99.90;;;;;;4974129;28;19913;-78
2023/09/11 01:35:56;;;;;;;;;;;15.60;99.90;;;;;;4956295;28;19911;-77
2023/09/11 01:38:21;;;;;;;;;;;15.50;99.90;;;;;;4974554;28;20355;-77
2023/09/11 01:40:51;;;;;;;;;;;15.40;99.90;;;;;;4973735;28;19996;-78
2023/09/11 01:43:18;;;;;;;;;;;15.40;99.90;;;;;;4973595;28;20000;-78
2023/09/11 01:45:44;;;;;;;;;;;15.40;99.90;;;;;;4973863;28;19963;-78
2023/09/11 01:48:11;;;;;;;;;;;15.40;99.90;;;;;;4956126;28;19918;-78
2023/09/11 01:50:38;;;;;;;;;;;15.40;99.90;;;;;;4955934;28;20074;-77
2023/09/11 01:53:06;;;;;;;;;;;15.40;99.90;;;;;;4956238;28;19921;-78
2023/09/11 01:55:32;;;;;;;;;;;15.30;99.90;;;;;;4973767;28;19917;-77
2023/09/11 01:57:58;;;;;;;;;;;15.40;99.90;;;;;;4956072;28;19906;-78
2023/09/11 02:00:23;;;;;;;;;;;15.30;99.90;;;;;;4973528;28;19913;-78
2023/09/11 02:02:53;;;;;;;;;;;15.20;99.90;;;;;;4955373;28;20323;-78
2023/09/11 02:05:18;;;;;;;;;;;15.20;99.90;;;;;;4972583;28;20020;-78
2023/09/11 02:07:44;;;;;;;;;;;15.20;99.90;;;;;;4955909;28;20010;-77
2023/09/11 02:10:12;;;;;;;;;;;15.20;99.90;;;;;;4973740;28;19916;-79
2023/09/11 02:12:38;;;;;;;;;;;15.10;99.90;;;;;;4954530;28;19918;-78
2023/09/11 02:15:04;;;;;;;;;;;15.10;99.90;;;;;;4972980;28;19906;-77
2023/09/11 02:17:29;;;;;;;;;;;15.10;99.90;;;;;;4972255;28;19951;-77
2023/09/11 02:19:55;;;;;;;;;;;15.00;99.90;;;;;;4971311;28;19906;-78
2023/09/11 02:22:20;;;;;;;;;;;15.00;99.90;;;;;;4953839;28;19945;-78
2023/09/11 02:24:46;;;;;;;;;;;14.90;99.90;;;;;;4953894;28;20387;-78
2023/09/11 02:27:11;;;;;;;;;;;14.90;99.90;;;;;;4953865;28;20169;-78
2023/09/11 02:29:37;;;;;;;;;;;14.90;99.90;;;;;;4971665;28;20090;-78
2023/09/11 02:32:03;;;;;;;;;;;14.90;99.90;;;;;;4971382;28;20069;-78
2023/09/11 02:34:29;;;;;;;;;;;14.90;99.90;;;;;;4953831;28;19945;-78
2023/09/11 02:36:54;;;;;;;;;;;14.80;99.90;;;;;;4972836;28;19953;-78
2023/09/11 02:39:20;;;;;;;;;;;14.80;99.90;;;;;;4972467;28;19995;-78
2023/09/11 02:41:45;;;;;;;;;;;14.70;99.90;;;;;;4972619;28;19906;-77
2023/09/11 02:44:11;;;;;;;;;;;14.80;99.90;;;;;;4972620;28;19953;-78
2023/09/11 02:46:36;;;;;;;;;;;14.90;99.90;;;;;;4955178;28;19906;-78
2023/09/11 02:49:02;;;;;;;;;;;14.90;99.90;;;;;;4972223;28;20012;-78
2023/09/11 02:51:28;;;;;;;;;;;14.80;99.90;;;;;;4972736;28;19921;-78
2023/09/11 02:53:54;;;;;;;;;;;14.90;99.90;;;;;;4972790;28;20363;-77
2023/09/11 02:56:20;;;;;;;;;;;14.80;99.90;;;;;;4955135;28;19910;-76
2023/09/11 02:58:45;;;;;;;;;;;14.80;99.90;;;;;;4955142;28;19917;-78
2023/09/11 03:01:11;;;;;;;;;;;14.80;99.90;;;;;;4955232;28;19906;-77
2023/09/11 03:03:36;;;;;;;;;;;14.80;99.90;;;;;;4954893;28;19906;-77
2023/09/11 03:06:02;;;;;;;;;;;14.90;99.90;;;;;;4972261;28;20272;-77
2023/09/11 03:08:28;;;;;;;;;;;14.90;99.90;;;;;;4954897;28;19913;-77
2023/09/11 03:10:53;;;;;;;;;;;14.80;99.90;;;;;;4954852;28;20331;-77
2023/09/11 03:13:19;;;;;;;;;;;14.80;99.90;;;;;;4972181;28;19914;-77
2023/09/11 03:15:44;;;;;;;;;;;14.70;99.90;;;;;;4972362;28;19964;-78
2023/09/11 03:18:10;;;;;;;;;;;14.70;99.90;;;;;;4972046;28;19910;-77
2023/09/11 03:20:36;;;;;;;;;;;14.70;99.90;;;;;;4971854;28;19961;-78
2023/09/11 03:23:01;;;;;;;;;;;14.70;99.90;;;;;;4954519;28;19961;-78
2023/09/11 03:25:27;;;;;;;;;;;14.60;99.90;;;;;;4971995;28;19956;-77
2023/09/11 03:27:53;;;;;;;;;;;14.60;99.90;;;;;;4972024;28;20367;-78
2023/09/11 03:30:18;;;;;;;;;;;14.60;99.90;;;;;;4954497;28;20094;-77
2023/09/11 03:32:44;;;;;;;;;;;14.50;99.90;;;;;;4972108;28;19914;-77
2023/09/11 03:35:09;;;;;;;;;;;14.50;99.90;;;;;;4954074;28;19929;-77
2023/09/11 03:37:35;;;;;;;;;;;14.50;99.90;;;;;;4972579;28;19906;-78
2023/09/11 03:40:06;;;;;;;;;;;14.50;99.90;;;;;;4954830;28;19914;-77
2023/09/11 03:42:32;;;;;;;;;;;14.50;99.90;;;;;;4971710;28;19906;-77
2023/09/11 03:44:58;;;;;;;;;;;14.40;99.90;;;;;;4971518;28;19918;-77
2023/09/11 03:47:23;;;;;;;;;;;14.40;99.90;;;;;;4971646;28;20358;-78
2023/09/11 03:49:49;;;;;;;;;;;14.40;99.90;;;;;;4970668;28;20228;-78
2023/09/11 03:52:14;;;;;;;;;;;14.30;99.90;;;;;;4971184;28;19949;-77
2023/09/11 03:54:40;;;;;;;;;;;14.30;99.90;;;;;;4971798;28;20005;-77
2023/09/11 03:57:05;;;;;;;;;;;14.30;99.90;;;;;;4971087;28;19905;-77
2023/09/11 03:59:31;;;;;;;;;;;14.20;99.90;;;;;;4971859;28;19910;-77
2023/09/11 04:01:56;;;;;;;;;;;14.10;99.90;;;;;;4971453;28;19906;-78
2023/09/11 04:04:22;;;;;;;;;;;14.20;99.90;;;;;;4954695;28;20013;-76
2023/09/11 04:06:47;;;;;;;;;;;14.20;99.90;;;;;;4971169;28;19910;-77
2023/09/11 04:09:13;;;;;;;;;;;14.10;99.90;;;;;;4970987;28;19995;-78
2023/09/11 04:11:38;;;;;;;;;;;14.20;99.90;;;;;;4971111;28;19987;-77
2023/09/11 04:14:04;;;;;;;;;;;14.20;99.90;;;;;;4971329;28;19906;-78
2023/09/11 04:16:29;;;;;;;;;;;14.20;99.90;;;;;;4954257;28;20061;-78
2023/09/11 04:18:55;;;;;;;;;;;14.20;99.90;;;;;;4953754;28;20450;-77
2023/09/11 04:21:20;;;;;;;;;;;14.10;99.90;;;;;;4954668;28;19971;-78
2023/09/11 04:23:46;;;;;;;;;;;14.10;99.90;;;;;;4956117;28;19937;-78
2023/09/11 04:26:11;;;;;;;;;;;14.00;99.90;;;;;;4973158;28;19993;-79
2023/09/11 04:28:37;;;;;;;;;;;14.10;99.90;;;;;;4970821;28;19928;-78
2023/09/11 04:31:02;;;;;;;;;;;14.10;99.90;;;;;;4953100;28;20266;-77
2023/09/11 04:33:28;;;;;;;;;;;14.00;99.90;;;;;;4970878;28;20070;-77
2023/09/11 04:35:54;;;;;;;;;;;14.00;99.90;;;;;;4970423;28;20003;-78
2023/09/11 04:38:19;;;;;;;;;;;13.90;99.90;;;;;;4970864;28;19957;-77
2023/09/11 04:40:45;;;;;;;;;;;14.00;99.90;;;;;;4970729;28;19917;-78
2023/09/11 04:43:10;;;;;;;;;;;13.90;99.90;;;;;;4974627;28;19953;-77
2023/09/11 04:45:36;;;;;;;;;;;13.90;99.90;;;;;;4962256;28;20431;-78
2023/09/11 04:48:01;;;;;;;;;;;13.90;99.90;;;;;;4980945;28;19993;-78
2023/09/11 04:50:27;;;;;;;;;;;13.90;99.90;;;;;;4984377;28;19964;-77
2023/09/11 04:52:55;;;;;;;;;;;14.10;99.90;;;;;;4972759;28;19965;-77
2023/09/11 04:55:21;;;;;;;;;;;14.10;99.90;;;;;;4972490;28;19913;-78
2023/09/11 04:57:46;;;;;;;;;;;14.10;99.90;;;;;;4990190;28;19914;-78
2023/09/11 05:00:13;;;;;;;;;;;14.20;99.90;;;;;;4990047;28;19906;-78
2023/09/11 05:02:39;;;;;;;;;;;14.20;99.90;;;;;;4993368;28;20154;-78
2023/09/11 05:05:05;;;;;;;;;;;14.20;99.90;;;;;;4993666;28;19912;-77
2023/09/11 05:07:30;;;;;;;;;;;14.20;99.90;;;;;;4976196;28;20093;-78
2023/09/11 05:09:56;;;;;;;;;;;14.20;99.90;;;;;;4994020;28;20325;-78
2023/09/11 05:12:21;;;;;;;;;;;14.20;99.90;;;;;;4994229;28;19968;-78
2023/09/11 05:14:47;;;;;;;;;;;14.30;99.90;;;;;;4993749;28;19906;-78
2023/09/11 05:17:12;;;;;;;;;;;14.30;99.90;;;;;;4994383;28;19959;-77
2023/09/11 05:19:38;;;;;;;;;;;14.40;99.90;;;;;;4993549;28;20386;-77
2023/09/11 05:22:04;;;;;;;;;;;14.30;99.90;;;;;;4994964;28;19906;-78
2023/09/11 05:24:31;;;;;;;;;;;14.20;99.90;;;;;;4993997;28;20062;-77
2023/09/11 05:26:57;;;;;;;;;;;14.30;99.90;;;;;;4976121;28;19929;-78
2023/09/11 05:29:22;;;;;;;;;;;14.40;99.90;;;;;;4993797;28;20354;-78
2023/09/11 05:31:48;;;;;;;;;;;14.50;99.90;;;;;;4993690;28;19909;-77
2023/09/11 05:34:13;;;;;;;;;;;14.60;99.90;;;;;;4975809;28;19996;-77
2023/09/11 05:36:39;;;;;;;;;;;14.60;99.90;;;;;;4976269;28;19912;-79
2023/09/11 05:39:05;;;;;;;;;;;14.60;99.90;;;;;;4993573;28;19906;-77
2023/09/11 05:41:31;;;;;;;;;;;14.60;99.90;;;;;;4975787;28;20071;-78
2023/09/11 05:43:56;;;;;;;;;;;14.70;99.90;;;;;;4996951;28;19952;-78
2023/09/11 05:46:22;;;;;;;;;;;14.60;99.90;;;;;;4985947;28;19909;-78
2023/09/11 05:48:47;;;;;;;;;;;14.60;99.90;;;;;;5003741;28;20112;-78
2023/09/11 05:51:14;;;;;;;;;;;14.70;99.90;;;;;;4983639;28;20271;-78
2023/09/11 05:53:39;;;;;;;;;;;14.70;99.90;;;;;;4993084;28;19918;-79
2023/09/11 05:56:05;;;;;;;;;;;14.70;99.90;;;;;;4992869;28;19906;-79
2023/09/11 05:58:30;;;;;;;;;;;14.80;99.90;;;;;;4975442;28;19914;-78
2023/09/11 06:00:56;;;;;;;;;;;14.90;99.90;;;;;;4992807;28;19906;-78
2023/09/11 06:03:21;;;;;;;;;;;14.90;99.90;;;;;;4992982;28;20298;-78
2023/09/11 06:05:47;;;;;;;;;;;15.00;99.90;;;;;;4992502;28;19906;-78
2023/09/11 06:08:12;;;;;;;;;;;15.10;99.90;;;;;;4993023;28;19965;-79
2023/09/11 06:10:38;;;;;;;;;;;15.20;99.90;;;;;;4992821;28;19937;-78
2023/09/11 06:13:03;;;;;;;;;;;15.20;99.90;;;;;;4992020;28;20004;-79
2023/09/11 06:15:32;;;;;;;;;;;15.40;99.90;;;;;;4992801;28;19913;-78
2023/09/11 06:17:57;;;;;;;;;;;15.60;99.90;;;;;;4975000;28;19952;-78
2023/09/11 06:20:23;;;;;;;;;;;15.70;99.90;;;;;;4992264;28;19905;-79
2023/09/11 06:22:48;;;;;;;;;;;15.70;99.90;;;;;;4974969;28;19940;-78
2023/09/11 06:25:15;;;;;;;;;;;15.90;99.90;;;;;;4975131;28;20351;-79
2023/09/11 06:27:40;;;;;;;;;;;16.00;99.90;;;;;;4974987;28;19917;-78
2023/09/11 06:30:06;;;;;;;;;;;16.00;99.90;;;;;;4992534;28;20429;-78
2023/09/11 06:32:32;;;;;;;;;;;16.10;99.90;;;;;;4992504;28;19920;-78
2023/09/11 06:34:58;;;;;;;;;;;16.30;99.90;;;;;;4992341;28;19906;-78
2023/09/11 06:37:23;;;;;;;;;;;16.40;99.90;;;;;;4974549;28;19905;-78
2023/09/11 06:39:50;;;;;;;;;;;16.60;99.90;;;;;;4992327;28;19996;-78
2023/09/11 06:42:20;;;;;;;;;;;16.70;99.90;;;;;;4974748;28;20252;-79
2023/09/11 06:44:46;;;;;;;;;;;16.90;99.90;;;;;;4992110;28;19922;-78
2023/09/11 06:47:12;;;;;;;;;;;17.00;99.90;;;;;;4974630;28;20473;-79
2023/09/11 06:49:37;;;;;;;;;;;17.10;99.90;;;;;;4974237;28;19932;-80
2023/09/11 06:52:03;;;;;;;;;;;17.10;99.90;;;;;;4974598;28;20362;-78
2023/09/11 06:54:29;;;;;;;;;;;17.40;99.90;;;;;;4974547;28;19928;-78
2023/09/11 06:56:54;;;;;;;;;;;17.50;99.90;;;;;;4991943;28;19906;-78
2023/09/11 06:59:19;;;;;;;;;;;17.70;99.90;;;;;;4974211;28;19906;-79
2023/09/11 07:01:45;;;;;;;;;;;17.90;99.90;;;;;;4974223;28;20430;-78
2023/09/11 07:04:11;;;;;;;;;;;18.00;99.90;;;;;;4992096;28;20142;-78
2023/09/11 07:06:37;;;;;;;;;;;18.10;99.90;;;;;;4974221;28;20482;-78
2023/09/11 07:09:04;;;;;;;;;;;18.30;99.90;;;;;;4991804;28;19932;-79
2023/09/11 07:11:29;;;;;;;;;;;18.40;99.90;;;;;;4974056;28;19972;-79
2023/09/11 07:13:55;;;;;;;;;;;18.50;99.90;;;;;;4973934;28;20001;-78
2023/09/11 07:16:21;;;;;;;;;;;18.60;99.90;;;;;;4991263;28;19941;-79
2023/09/11 07:18:46;;;;;;;;;;;18.80;99.90;;;;;;4991177;28;20350;-78
2023/09/11 07:21:13;;;;;;;;;;;18.90;99.90;;;;;;4974106;28;19912;-78
2023/09/11 07:23:38;;;;;;;;;;;19.00;99.90;;;;;;4991382;28;19906;-78
2023/09/11 07:26:04;;;;;;;;;;;19.20;99.90;;;;;;4972773;28;19910;-79
2023/09/11 07:28:29;;;;;;;;;;;19.30;99.90;;;;;;4991952;28;19910;-79
2023/09/11 07:30:55;;;;;;;;;;;19.40;99.90;;;;;;4993919;28;20166;-79
2023/09/11 07:33:21;;;;;;;;;;;19.50;99.90;;;;;;4981870;28;19963;-79
2023/09/11 07:35:46;;;;;;;;;;;19.60;99.90;;;;;;5000596;28;19908;-79
2023/09/11 07:38:12;;;;;;;;;;;19.70;99.90;;;;;;5001706;28;19948;-78
2023/09/11 07:40:38;;;;;;;;;;;19.80;99.90;;;;;;4995532;28;19925;-79
2023/09/11 07:43:04;;;;;;;;;;;20.00;99.90;;;;;;4991218;28;19913;-79
2023/09/11 07:45:29;;;;;;;;;;;20.20;99.90;;;;;;5000637;28;19901;-79
2023/09/11 07:47:55;;;;;;;;;;;20.30;99.90;;;;;;5000390;28;19922;-79
2023/09/11 07:50:20;;;;;;;;;;;20.50;99.90;;;;;;5001363;28;19973;-79
2023/09/11 07:52:46;;;;;;;;;;;20.60;99.90;;;;;;5001175;28;20110;-79
2023/09/11 07:55:11;;;;;;;;;;;20.70;99.90;;;;;;4999708;28;20216;-79
2023/09/11 07:57:40;;;;;;;;;;;20.80;99.90;;;;;;5000427;28;19993;-79
2023/09/11 08:00:09;;;;;;;;;;;20.90;99.90;;;;;;4998550;28;19964;-79
2023/09/11 08:02:34;;;;;;;;;;;21.10;99.90;;;;;;4996715;28;19902;-79
2023/09/11 08:05:00;;;;;;;;;;;21.10;99.90;;;;;;4994880;28;19928;-79
2023/09/11 08:07:25;;;;;;;;;;;21.20;99.90;;;;;;4999589;28;19908;-78
2023/09/11 08:09:54;;;;;;;;;;;21.30;99.90;;;;;;5001456;28;19977;-79
2023/09/11 08:12:20;;;;;;;;;;;21.40;99.90;;;;;;4983346;28;20040;-78
2023/09/11 08:14:45;;;;;;;;;;;21.60;99.90;;;;;;4977515;28;19948;-79
2023/09/11 08:17:12;;;;;;;;;;;21.70;99.90;;;;;;4991533;28;19910;-80
2023/09/11 08:19:37;;;;;;;;;;;21.90;99.90;;;;;;4972565;28;19913;-79
2023/09/11 08:22:03;;;;;;;;;;;22.00;99.90;;;;;;4990528;28;19905;-80
2023/09/11 08:24:28;;;;;;;;;;;22.30;99.90;;;;;;4973289;28;19913;-80
2023/09/11 08:26:54;;;;;;;;;;;22.90;99.90;;;;;;4972983;28;19906;-80
2023/09/11 08:29:20;;;;;;;;;;;24.10;99.90;;;;;;4990550;28;20333;-80
2023/09/11 08:31:46;;;;;;;;;;;24.80;99.90;;;;;;4990345;28;19913;-79
2023/09/11 08:34:12;;;;;;;;;;;25.60;99.90;;;;;;4972942;28;20004;-80
2023/09/11 08:36:38;;;;;;;;;;;26.30;99.90;;;;;;4989854;28;19983;-80
2023/09/11 08:39:03;;;;;;;;;;;27.10;99.90;;;;;;4990737;28;19944;-79
2023/09/11 08:41:29;;;;;;;;;;;27.70;98.60;;;;;;4990659;28;19909;-80
2023/09/11 08:43:54;;;;;;;;;;;27.80;97.80;;;;;;4987740;28;20012;-78
2023/09/11 08:46:21;;;;;;;;;;;28.00;95.70;;;;;;4989552;28;19917;-79
2023/09/11 08:48:48;;;;;;;;;;;28.20;94.90;;;;;;5003955;28;19917;-80
2023/09/11 08:51:39;;;;;;;;;;;28.20;93.90;;;;;;5009468;28;20368;-79
2023/09/11 08:54:09;;;;;;;;;;;27.90;93.90;;;;;;4979359;28;19968;-80
2023/09/11 08:56:35;;;;;;;;;;;27.50;94.80;;;;;;4972408;28;19906;-80
2023/09/11 08:59:02;;;;;;;;;;;27.40;95.00;;;;;;4989894;28;19916;-79
2023/09/11 09:01:28;;;;;;;;;;;26.90;95.80;;;;;;4972206;28;19913;-78
2023/09/11 09:03:53;;;;;;;;;;;26.90;96.00;;;;;;4971602;28;19913;-79
2023/09/11 09:06:19;;;;;;;;;;;26.70;96.30;;;;;;4971893;28;20327;-79
2023/09/11 09:08:45;;;;;;;;;;;26.80;96.60;;;;;;4989423;28;19997;-78
2023/09/11 09:11:11;;;;;;;;;;;27.10;96.10;;;;;;4989598;28;20278;-80
2023/09/11 09:13:36;;;;;;;;;;;27.80;96.10;;;;;;4989879;28;19968;-79
2023/09/11 09:16:02;;;;;;;;;;;27.90;94.80;;;;;;4989851;28;19971;-80
2023/09/11 09:18:28;;;;;;;;;;;28.30;94.50;;;;;;4972336;28;19948;-79
2023/09/11 09:20:55;;;;;;;;;;;28.60;93.20;;;;;;4972518;28;19993;-79
2023/09/11 09:23:31;;;;;;;;;;;28.70;92.90;;;;;;4991931;28;19909;-79
2023/09/11 09:26:04;;;;;;;;;;;29.00;92.00;;;;;;4973568;28;19906;-79
2023/09/11 09:28:29;;;;;;;;;;;29.00;92.40;;;;;;5005890;28;20457;-79
2023/09/11 09:30:56;;;;;;;;;;;28.70;92.10;;;;;;5009318;28;20004;-78
2023/09/11 09:33:22;;;;;;;;;;;28.60;92.40;;;;;;5008950;28;19949;-80
2023/09/11 09:35:48;;;;;;;;;;;28.80;92.60;;;;;;4990984;28;19943;-80
2023/09/11 09:38:13;;;;;;;;;;;29.20;92.10;;;;;;4992055;28;20366;-81
2023/09/11 09:40:39;;;;;;;;;;;29.10;91.30;;;;;;4972197;28;20370;-80
2023/09/11 09:43:06;;;;;;;;;;;29.10;91.40;;;;;;4989769;28;19932;-81
2023/09/11 09:45:33;;;;;;;;;;;29.10;91.30;;;;;;4971900;28;19906;-81
2023/09/11 09:48:09;;;;;;;;;;;29.20;91.10;;;;;;4989597;28;19914;-79
2023/09/11 09:50:53;;;;;;;;;;;28.80;91.50;;;;;;4975151;28;19913;-80
2023/09/11 09:53:46;;;;;;;;;;;29.10;92.00;;;;;;4993392;28;20393;-80
2023/09/11 09:56:12;;;;;;;;;;;29.10;91.20;;;;;;4993377;28;19909;-80
2023/09/11 09:58:38;;;;;;;;;;;29.10;91.30;;;;;;4975615;28;20077;-80
2023/09/11 10:01:04;;;;;;;;;;;29.30;91.30;;;;;;4975336;28;19905;-77
2023/09/11 10:03:38;;;;;;;;;;;29.30;90.80;;;;;;4992999;28;20454;-80
2023/09/11 10:06:05;;;;;;;;;;;29.40;90.80;;;;;;4992630;28;19905;-77
2023/09/11 10:08:31;;;;;;;;;;;29.50;90.50;;;;;;4993123;28;19912;-77
2023/09/11 10:10:56;;;;;;;;;;;29.70;90.20;;;;;;4993045;28;19909;-80
2023/09/11 10:13:24;;;;;;;;;;;29.60;90.40;;;;;;4975190;28;19925;-80
2023/09/11 10:15:50;;;;;;;;;;;29.60;90.30;;;;;;4992555;28;19959;-76
2023/09/11 10:18:16;;;;;;;;;;;29.60;90.40;;;;;;4975315;28;19906;-78
2023/09/11 10:20:41;;;;;;;;;;;29.60;89.60;;;;;;4992479;28;19929;-78
2023/09/11 10:23:08;;;;;;;;;;;29.60;89.70;;;;;;4975284;28;20000;-80
2023/09/11 10:25:36;;;;;;;;;;;29.80;89.90;;;;;;4992870;28;19905;-80
2023/09/11 10:28:03;;;;;;;;;;;29.70;91.30;;;;;;4992780;28;19905;-80
2023/09/11 10:30:47;;;;;;;;;;;29.90;90.20;;;;;;4975052;28;19932;-80
2023/09/11 10:33:17;;;;;;;;;;;29.90;89.60;;;;;;4992543;28;19964;-78
2023/09/11 10:35:45;;;;;;;;;;;29.70;89.10;;;;;;4992236;28;19917;-77
2023/09/11 10:38:12;;;;;;;;;;;29.80;89.00;;;;;;4974753;28;19910;-77
2023/09/11 10:40:39;;;;;;;;;;;29.80;88.50;;;;;;4975168;28;19912;-78
2023/09/11 10:43:04;;;;;;;;;;;30.20;87.30;;;;;;4975114;28;20004;-78
2023/09/11 10:45:34;;;;;;;;;;;30.40;83.20;;;;;;4992718;28;20060;-77
2023/09/11 10:47:59;;;;;;;;;;;30.50;83.20;;;;;;4974422;28;19913;-76
2023/09/11 10:50:38;;;;;;;;;;;30.30;83.20;;;;;;4974225;28;19913;-78
2023/09/11 10:53:07;;;;;;;;;;;30.40;84.90;;;;;;4992000;28;19924;-78
2023/09/11 10:55:33;;;;;;;;;;;30.30;85.90;;;;;;4974642;28;20358;-77
2023/09/11 10:58:02;;;;;;;;;;;30.10;85.90;;;;;;4992130;28;19909;-76
2023/09/11 11:00:28;;;;;;;;;;;30.30;86.40;;;;;;4991901;28;19910;-80
2023/09/11 11:02:56;;;;;;;;;;;30.20;85.50;;;;;;4992171;28;20366;-77
2023/09/11 11:05:21;;;;;;;;;;;30.00;83.60;;;;;;4991783;28;20027;-79
2023/09/11 11:07:49;;;;;;;;;;;30.20;84.60;;;;;;4974181;28;20374;-81
2023/09/11 11:10:15;;;;;;;;;;;30.00;83.90;;;;;;4991971;28;20023;-79
2023/09/11 11:12:42;;;;;;;;;;;29.80;84.10;;;;;;4991519;28;19924;-81
2023/09/11 11:15:21;;;;;;;;;;;29.70;82.40;;;;;;4991960;28;20000;-76
2023/09/11 11:17:47;;;;;;;;;;;29.60;82.80;;;;;;4974056;28;20358;-76
2023/09/11 11:20:16;;;;;;;;;;;30.00;82.40;;;;;;4973699;28;19906;-76
2023/09/11 11:22:42;;;;;;;;;;;30.30;81.80;;;;;;4973988;28;20000;-79
2023/09/11 11:25:10;;;;;;;;;;;30.30;83.10;;;;;;4988655;28;20000;-79
2023/09/11 11:27:38;;;;;;;;;;;30.20;81.30;;;;;;4990086;28;19905;-76
2023/09/11 11:30:06;;;;;;;;;;;30.10;79.20;;;;;;4990066;28;19906;-80
2023/09/11 11:32:32;;;;;;;;;;;30.00;79.60;;;;;;4987592;28;20051;-79
2023/09/11 11:35:00;;;;;;;;;;;30.00;78.20;;;;;;4987922;28;20283;-79
2023/09/11 11:37:25;;;;;;;;;;;29.90;78.40;;;;;;4988068;28;20174;-79
2023/09/11 11:39:52;;;;;;;;;;;29.70;77.20;;;;;;4989488;28;20532;-79
2023/09/11 11:42:18;;;;;;;;;;;29.90;78.10;;;;;;4989626;28;20020;-79
2023/09/11 11:44:44;;;;;;;;;;;29.90;77.70;;;;;;4987470;28;19906;-79
2023/09/11 11:47:10;;;;;;;;;;;30.00;77.40;;;;;;4990137;28;19909;-79
2023/09/11 11:49:36;;;;;;;;;;;30.20;77.10;;;;;;4990372;28;19916;-79
2023/09/11 11:52:03;;;;;;;;;;;30.50;75.50;;;;;;4989960;28;19968;-76
2023/09/11 11:54:29;;;;;;;;;;;31.30;75.00;;;;;;4973103;28;20012;-77
2023/09/11 11:56:55;;;;;;;;;;;32.80;71.60;;;;;;4990711;28;19913;-76
2023/09/11 11:59:21;;;;;;;;;;;33.90;69.70;;;;;;4973208;28;19979;-76
2023/09/11 12:01:47;;;;;;;;;;;35.30;68.20;;;;;;4990322;28;19960;-76
2023/09/11 12:04:12;;;;;;;;;;;36.50;65.30;;;;;;4990213;28;19945;-75
2023/09/11 12:06:38;;;;;;;;;;;37.00;61.60;;;;;;4990241;28;19905;-76
2023/09/11 12:09:03;;;;;;;;;;;36.50;61.90;;;;;;4972918;28;19972;-77
2023/09/11 12:11:30;;;;;;;;;;;36.20;60.90;;;;;;4989709;28;19910;-76
2023/09/11 12:13:56;;;;;;;;;;;35.40;60.60;;;;;;4973002;28;19956;-75
2023/09/11 12:16:22;;;;;;;;;;;33.80;61.20;;;;;;4990861;28;19910;-77
2023/09/11 12:18:47;;;;;;;;;;;34.40;61.70;;;;;;4990213;28;19910;-77
2023/09/11 12:21:13;;;;;;;;;;;35.20;60.80;;;;;;4989879;28;19917;-76
2023/09/11 12:23:38;;;;;;;;;;;35.40;60.20;;;;;;4990012;28;20040;-77
2023/09/11 12:26:04;;;;;;;;;;;36.60;59.20;;;;;;4972295;28;19906;-78
2023/09/11 12:28:30;;;;;;;;;;;36.70;57.70;;;;;;4972932;28;20347;-78
2023/09/11 12:30:56;;;;;;;;;;;36.40;57.70;;;;;;4973313;28;19938;-78
2023/09/11 12:33:23;;;;;;;;;;;37.00;57.20;;;;;;4990531;28;19921;-79
2023/09/11 12:35:51;;;;;;;;;;;36.60;56.00;;;;;;4972090;28;20152;-77
2023/09/11 12:38:17;;;;;;;;;;;36.80;56.30;;;;;;4972511;28;19906;-78
2023/09/11 12:40:43;;;;;;;;;;;36.90;57.30;;;;;;4972680;28;19906;-79
2023/09/11 12:43:09;;;;;;;;;;;38.00;57.60;;;;;;4986736;28;20468;-78
2023/09/11 12:45:34;;;;;;;;;;;38.20;54.40;;;;;;4989279;28;19910;-77
2023/09/11 12:48:00;;;;;;;;;;;38.80;55.00;;;;;;4989278;28;20384;-79
2023/09/11 12:50:26;;;;;;;;;;;38.30;54.00;;;;;;4989027;28;20016;-78
2023/09/11 12:52:52;;;;;;;;;;;38.70;54.00;;;;;;4971682;28;20370;-79
2023/09/11 12:55:17;;;;;;;;;;;38.30;53.80;;;;;;4989454;28;19905;-77
2023/09/11 12:57:43;;;;;;;;;;;37.90;54.50;;;;;;4971243;28;19931;-80
2023/09/11 13:00:09;;;;;;;;;;;37.30;53.80;;;;;;4989360;28;20347;-78
2023/09/11 13:02:34;;;;;;;;;;;35.60;56.00;;;;;;4971498;28;19906;-77
2023/09/11 13:05:00;;;;;;;;;;;35.90;56.40;;;;;;4971860;28;19914;-79
2023/09/11 13:07:26;;;;;;;;;;;36.90;55.80;;;;;;4989039;28;20472;-77
2023/09/11 13:09:52;;;;;;;;;;;38.20;53.90;;;;;;4988842;28;19906;-77
2023/09/11 13:12:17;;;;;;;;;;;38.50;52.00;;;;;;4988799;28;19914;-78
2023/09/11 13:14:43;;;;;;;;;;;39.10;52.20;;;;;;4988920;28;19906;-77
2023/09/11 13:17:08;;;;;;;;;;;40.20;51.30;;;;;;4971049;28;19906;-77
2023/09/11 13:19:34;;;;;;;;;;;40.50;49.80;;;;;;4971110;28;19905;-78
2023/09/11 13:21:59;;;;;;;;;;;40.30;50.90;;;;;;4971580;28;19906;-78
2023/09/11 13:24:25;;;;;;;;;;;40.80;50.40;;;;;;4975041;28;19906;-78
2023/09/11 13:26:50;;;;;;;;;;;40.30;48.10;;;;;;4975443;28;20374;-77
2023/09/11 13:29:16;;;;;;;;;;;39.00;49.10;;;;;;4975779;28;19910;-80
2023/09/11 13:31:41;;;;;;;;;;;38.90;49.50;;;;;;4992776;28;19945;-80
2023/09/11 13:34:07;;;;;;;;;;;38.90;49.10;;;;;;4992622;28;19957;-78
2023/09/11 13:36:33;;;;;;;;;;;37.70;48.30;;;;;;4991809;28;19914;-80
2023/09/11 13:38:58;;;;;;;;;;;37.60;48.80;;;;;;4974850;28;19905;-79
2023/09/11 13:41:24;;;;;;;;;;;38.60;49.10;;;;;;4993022;28;19905;-77
2023/09/11 13:43:50;;;;;;;;;;;38.60;49.50;;;;;;4992245;28;20000;-79
2023/09/11 13:46:15;;;;;;;;;;;38.50;48.10;;;;;;4992559;28;19944;-75
2023/09/11 13:48:41;;;;;;;;;;;38.60;49.50;;;;;;4991755;28;20011;-77
2023/09/11 13:51:08;;;;;;;;;;;38.80;49.30;;;;;;4992005;28;19980;-75
2023/09/11 13:53:33;;;;;;;;;;;39.30;48.70;;;;;;4991860;28;19913;-79
2023/09/11 13:55:59;;;;;;;;;;;40.00;49.40;;;;;;4992397;28;19905;-78
2023/09/11 13:58:24;;;;;;;;;;;40.60;48.10;;;;;;4992158;28;20243;-78
2023/09/11 14:00:50;;;;;;;;;;;40.50;47.20;;;;;;4992269;28;19952;-78
2023/09/11 14:03:15;;;;;;;;;;;39.70;47.60;;;;;;4992115;28;19906;-76
2023/09/11 14:05:41;;;;;;;;;;;39.30;47.90;;;;;;4992011;28;19937;-78
2023/09/11 14:08:07;;;;;;;;;;;39.10;47.90;;;;;;4992062;28;19906;-77
2023/09/11 14:10:32;;;;;;;;;;;38.00;48.20;;;;;;4992515;28;20330;-77